Current Weather

Greater Kankakee

Kankakee, Illinois (KIKK)

Report from: Wednesday, September 28, 2022 5:15 AM CDT
Current time: Wednesday, September 28, 2022 5:41 AM CDT

Nearby weather
Weather history
Weather forecast

Temperature6.9°C (44.4°F)
Wind chill6.1°C (42.9°F)
Dew point4.6°C (40.3°F)
Winds 3 kts (1.5 m/s, 3.5 mph) West (280°)
Visibility10 mi. (16.1 km)
Clouds Ceiling: Overcast 4,900 ft. (1,494 m)
Altimeter30.36 in.Hg (1028 mB)
Relative humidity85 %
Density altitude-1,354 ft. (-413 m)
Remarks Fully automated report
Automated weather observing station with precipitation discriminator
Flight conditions Visual Meteorological Conditions
Raw dataKIKK 281015Z AUTO 28003KT 10SM OVC049 07/05 A3036 RMK AO2 T00690046
An error has occurred. This application may no longer respond until reloaded. Reload 🗙